Time;durP1;ratioP1;P1;durP2;ratioP2;P2;SDS_P1;SDS_P2;PMS_P1;PMS_P2;Temp;Humidity;BMP_temperature;BMP_pressure;BME280_temperature;BME280_humidity;BME280_pressure;Samples;Min_cycle;Max_cycle;Signal;HPM_P1;HPM_P2
2022/07/16 00:06:07;;;;;;;0.70;0.30;;;;;;;22.77;36.63;102098.31;16137898;19;129854;-64
2022/07/16 00:11:29;;;;;;;0.75;0.38;;;;;;;22.78;36.13;102107.50;16136571;19;129949;-65
2022/07/16 00:16:51;;;;;;;3.53;0.40;;;;;;;22.78;36.42;102118.66;16136805;19;130690;-65
2022/07/16 00:22:12;;;;;;;0.63;0.40;;;;;;;22.77;36.82;102103.03;16135762;19;129043;-65
2022/07/16 00:27:34;;;;;;;0.50;0.20;;;;;;;22.76;36.53;102102.19;16135877;19;130238;-65
2022/07/16 00:32:56;;;;;;;0.93;0.50;;;;;;;22.77;36.37;102103.03;16138743;19;129654;-65
2022/07/16 00:38:18;;;;;;;0.30;0.20;;;;;;;22.74;36.63;102094.06;16137185;19;130771;-65
2022/07/16 00:43:57;;;;;;;2.28;0.30;;;;;;;22.74;36.55;102094.06;16148466;19;129045;-65
2022/07/16 00:49:19;;;;;;;1.02;0.22;;;;;;;22.73;36.67;102099.88;16152150;19;129169;-65
2022/07/16 00:54:41;;;;;;;1.88;0.40;;;;;;;22.73;36.60;102097.09;16149457;19;130205;-65
2022/07/16 01:00:05;;;;;;;0.80;0.30;;;;;;;22.73;36.50;102094.28;16148797;19;129266;-65
2022/07/16 01:05:27;;;;;;;1.20;0.20;;;;;;;22.71;36.80;102083.41;16148914;19;129322;-65
2022/07/16 01:10:49;;;;;;;4.57;0.30;;;;;;;22.71;36.55;102083.41;16152402;19;129135;-64
2022/07/16 01:16:12;;;;;;;0.43;0.20;;;;;;;22.73;36.88;102097.09;16152722;19;132108;-64
2022/07/16 01:21:34;;;;;;;1.08;0.20;;;;;;;22.70;36.67;102086.44;16151452;19;130054;-64
2022/07/16 01:26:55;;;;;;;1.10;0.40;;;;;;;22.69;36.94;102082.78;16154835;19;129550;-64
2022/07/16 01:32:17;;;;;;;0.77;0.30;;;;;;;22.69;36.80;102091.16;16148701;19;130086;-64
2022/07/16 01:37:39;;;;;;;0.20;0.20;;;;;;;22.69;36.90;102085.56;16148099;19;129449;-64
2022/07/16 01:43:01;;;;;;;0.63;0.40;;;;;;;22.68;36.81;102088.63;16144132;19;129551;-64
2022/07/16 01:48:24;;;;;;;1.95;0.30;;;;;;;22.68;36.91;102085.84;16147877;19;129516;-63
2022/07/16 01:53:45;;;;;;;1.65;0.40;;;;;;;22.67;36.81;102090.56;16149172;19;129495;-64
2022/07/16 01:59:07;;;;;;;1.02;0.30;;;;;;;22.67;36.89;102079.41;16145511;19;129748;-64
2022/07/16 02:04:29;;;;;;;0.43;0.28;;;;;;;22.65;36.97;102081.56;16143632;19;129214;-65
2022/07/16 02:09:51;;;;;;;0.82;0.32;;;;;;;22.66;36.97;102088.84;16145324;19;130239;-65
2022/07/16 02:15:13;;;;;;;0.75;0.30;;;;;;;22.65;36.94;102095.53;16146883;19;131809;-65
2022/07/16 02:20:34;;;;;;;1.17;0.60;;;;;;;22.65;37.01;102109.47;16145369;19;130417;-65
2022/07/16 02:25:56;;;;;;;0.28;0.20;;;;;;;22.65;36.95;102115.03;16139912;19;129392;-64
2022/07/16 02:31:19;;;;;;;1.05;0.35;;;;;;;22.64;37.11;102106.94;16143795;19;129549;-64
2022/07/16 02:36:41;;;;;;;2.60;0.30;;;;;;;22.62;36.87;102101.63;16142988;19;129102;-64
2022/07/16 02:42:03;;;;;;;0.38;0.28;;;;;;;22.63;36.94;102103.31;16139019;19;130678;-64
2022/07/16 02:47:25;;;;;;;0.30;0.25;;;;;;;22.61;37.24;102102.72;16139328;19;131024;-64
2022/07/16 02:52:47;;;;;;;0.38;0.20;;;;;;;22.61;37.19;102088.75;16140227;19;128991;-64
2022/07/16 02:58:08;;;;;;;1.10;0.30;;;;;;;22.60;37.19;102092.63;16138822;19;130202;-65
2022/07/16 03:03:30;;;;;;;1.23;0.30;;;;;;;22.59;37.26;102088.16;16136006;19;131166;-64
2022/07/16 03:08:52;;;;;;;0.30;0.20;;;;;;;22.59;37.42;102094.56;16142676;19;129700;-65
2022/07/16 03:14:13;;;;;;;0.73;0.30;;;;;;;22.59;37.14;102102.09;16143361;19;130274;-64
2022/07/16 03:19:35;;;;;;;0.95;0.45;;;;;;;22.56;37.29;102088.63;16142405;19;131975;-63
2022/07/16 03:24:57;;;;;;;1.17;0.30;;;;;;;22.56;37.22;102095.06;16136834;19;129210;-65
2022/07/16 03:30:19;;;;;;;0.57;0.30;;;;;;;22.55;37.12;102096.16;16135305;19;129063;-65
2022/07/16 03:35:41;;;;;;;0.68;0.30;;;;;;;22.53;37.25;102095.56;16140595;19;130511;-65
2022/07/16 03:41:02;;;;;;;0.40;0.30;;;;;;;22.52;37.13;102104.19;16136563;19;129622;-65
2022/07/16 03:46:24;;;;;;;0.38;0.30;;;;;;;22.52;37.23;102107.81;16135185;19;129723;-65
2022/07/16 03:51:46;;;;;;;0.82;0.30;;;;;;;22.51;37.15;102113.63;16136684;19;130145;-65
2022/07/16 03:57:08;;;;;;;0.52;0.30;;;;;;;22.50;37.35;102109.16;16138905;19;129491;-65
2022/07/16 04:02:30;;;;;;;1.05;0.30;;;;;;;22.50;36.95;102114.72;16138230;19;129560;-63
2022/07/16 04:07:51;;;;;;;1.23;0.40;;;;;;;22.48;37.30;102116.91;16133325;19;129190;-65
2022/07/16 04:13:13;;;;;;;0.50;0.32;;;;;;;22.49;37.18;102126.97;16138233;19;130134;-65
2022/07/16 04:18:36;;;;;;;3.83;0.88;;;;;;;22.45;37.06;102134.97;16138890;19;129430;-65
2022/07/16 04:23:58;;;;;;;7.78;1.90;;;;;;;22.32;36.20;102127.69;16135289;19;128941;-65
2022/07/16 04:29:20;;;;;;;10.85;2.20;;;;;;;22.18;35.85;102129.84;16137702;19;129498;-65
2022/07/16 04:34:42;;;;;;;12.90;2.00;;;;;;;22.11;35.77;102140.25;16134280;19;129525;-65
2022/07/16 04:40:05;;;;;;;10.18;2.00;;;;;;;22.04;35.62;102140.34;16132056;19;129532;-65
2022/07/16 04:45:27;;;;;;;8.30;2.10;;;;;;;22.01;35.59;102140.88;16131875;19;130105;-65
2022/07/16 04:50:49;;;;;;;4.95;2.20;;;;;;;21.98;35.10;102152.47;16134588;19;128969;-65
2022/07/16 04:56:10;;;;;;;8.38;2.58;;;;;;;21.95;35.64;102147.38;16133038;19;129613;-65
2022/07/16 05:01:32;;;;;;;9.52;2.28;;;;;;;21.93;35.40;102150.41;16126270;19;129560;-65
2022/07/16 05:06:54;;;;;;;6.07;2.50;;;;;;;21.94;35.47;102154.03;16127500;19;131150;-65
2022/07/16 05:12:15;;;;;;;6.20;2.00;;;;;;;21.94;35.30;102152.13;16130389;19;129527;-65
2022/07/16 05:17:37;;;;;;;6.95;2.10;;;;;;;21.95;35.92;102158.53;16130976;19;129684;-65
2022/07/16 05:22:59;;;;;;;5.38;2.10;;;;;;;21.94;36.05;102162.41;16131742;19;130423;-65
2022/07/16 05:28:21;;;;;;;5.63;2.30;;;;;;;21.95;36.03;102161.31;16141616;19;132366;-65
2022/07/16 05:33:42;;;;;;;7.72;2.40;;;;;;;21.91;36.06;102174.03;16145645;19;130333;-65
2022/07/16 05:39:04;;;;;;;4.53;2.25;;;;;;;21.92;36.35;102175.72;16145927;19;131909;-65
2022/07/16 05:44:26;;;;;;;15.70;2.80;;;;;;;21.86;36.58;102188.66;16136477;19;130455;-65
2022/07/16 05:49:48;;;;;;;8.70;2.85;;;;;;;21.76;36.82;102189.25;16144522;19;130485;-67
2022/07/16 05:55:10;;;;;;;5.57;2.80;;;;;;;21.73;37.28;102186.06;16143495;19;131833;-67
2022/07/16 06:00:31;;;;;;;11.57;3.08;;;;;;;21.72;37.21;102196.38;16138721;19;130457;-67
2022/07/16 06:05:53;;;;;;;9.90;3.58;;;;;;;21.71;38.00;102200.25;16138873;19;129432;-66
2022/07/16 06:11:15;;;;;;;5.18;2.80;;;;;;;21.69;38.03;102205.19;16145238;19;130554;-67
2022/07/16 06:16:40;;;;;;;8.27;2.97;;;;;;;21.68;38.67;102200.72;16145020;19;129203;-67
2022/07/16 06:22:01;;;;;;;5.03;3.05;;;;;;;21.68;38.80;102203.50;16140845;19;128966;-66
2022/07/16 06:27:23;;;;;;;7.05;2.78;;;;;;;21.71;38.98;102191.06;16137165;19;129006;-67
2022/07/16 06:32:45;;;;;;;8.13;2.65;;;;;;;21.73;39.52;102200.00;16142232;19;130688;-67
2022/07/16 06:38:07;;;;;;;7.68;2.80;;;;;;;21.69;40.20;102201.56;16142241;19;130563;-67
2022/07/16 06:43:28;;;;;;;9.10;2.80;;;;;;;21.64;40.82;102207.84;16139429;19;130294;-67
2022/07/16 06:48:50;;;;;;;4.78;1.98;;;;;;;21.62;41.06;102204.47;16139024;19;130552;-67
2022/07/16 06:54:12;;;;;;;6.45;1.83;;;;;;;21.58;41.33;102214.34;16136253;19;129545;-67
2022/07/16 06:59:33;;;;;;;5.25;1.65;;;;;;;21.57;41.54;102218.22;16133896;19;129161;-67
2022/07/16 07:04:55;;;;;;;3.75;1.70;;;;;;;21.59;41.51;102227.19;16132745;19;130958;-63
2022/07/16 07:10:19;;;;;;;5.57;1.45;;;;;;;21.62;41.82;102238.72;16136919;19;130576;-63
2022/07/16 07:15:42;;;;;;;8.02;1.55;;;;;;;21.64;41.60;102249.63;16135433;19;130210;-63
2022/07/16 07:21:04;;;;;;;4.25;1.40;;;;;;;21.67;41.44;102254.72;16131206;19;131041;-63
2022/07/16 07:26:26;;;;;;;6.35;1.35;;;;;;;21.74;41.16;102261.06;16130745;19;130639;-64
2022/07/16 07:31:47;;;;;;;3.63;1.10;;;;;;;21.80;41.37;102268.47;16136664;19;129853;-63
2022/07/16 07:37:09;;;;;;;3.22;0.90;;;;;;;21.85;41.01;102272.47;16135881;19;130728;-63
2022/07/16 07:42:31;;;;;;;4.18;0.90;;;;;;;21.88;41.06;102283.16;16128298;19;129820;-63
2022/07/16 07:47:53;;;;;;;2.67;1.00;;;;;;;21.91;40.45;102280.75;16127884;19;129487;-63
2022/07/16 07:53:15;;;;;;;1.70;0.70;;;;;;;21.94;40.58;102285.00;16135935;19;129674;-63
2022/07/16 07:58:38;;;;;;;1.50;0.70;;;;;;;21.96;40.11;102282.81;16135317;19;129235;-63
2022/07/16 08:03:59;;;;;;;4.00;1.00;;;;;;;21.99;40.29;102293.50;16136791;19;129621;-63
2022/07/16 08:09:21;;;;;;;2.13;0.70;;;;;;;22.02;39.94;102293.03;16137367;19;130137;-63
2022/07/16 08:14:43;;;;;;;4.88;0.80;;;;;;;22.04;40.11;102295.59;16131596;19;129726;-63
2022/07/16 08:20:06;;;;;;;1.58;0.70;;;;;;;22.06;40.02;102305.41;16138861;19;129570;-64
2022/07/16 08:25:47;;;;;;;1.42;0.82;;;;;;;22.08;39.62;102300.44;16131265;19;130618;-64
2022/07/16 08:31:09;;;;;;;1.05;0.60;;;;;;;22.12;39.80;102300.81;16132131;19;129968;-63
2022/07/16 08:36:30;;;;;;;0.80;0.70;;;;;;;22.16;39.43;102302.03;16128592;19;129233;-64
2022/07/16 08:41:53;;;;;;;1.55;0.60;;;;;;;22.19;39.36;102314.66;16124344;19;130193;-63
2022/07/16 08:47:15;;;;;;;1.23;0.50;;;;;;;22.21;39.48;102304.16;16123666;19;129973;-64
2022/07/16 08:52:48;;;;;;;1.80;0.63;;;;;;;22.26;38.97;102315.44;16129227;19;130080;-64
2022/07/16 08:58:10;;;;;;;2.33;0.60;;;;;;;22.26;38.88;102321.03;16130390;19;130471;-64
2022/07/16 09:03:32;;;;;;;0.50;0.32;;;;;;;22.27;38.61;102328.31;16137987;19;130305;-64
2022/07/16 09:08:55;;;;;;;1.20;0.40;;;;;;;22.29;38.77;102337.25;16145679;19;129489;-64
2022/07/16 09:14:18;;;;;;;1.50;0.40;;;;;;;22.29;38.63;102331.69;16144968;19;130110;-65
2022/07/16 09:19:40;;;;;;;1.17;0.50;;;;;;;22.31;38.46;102346.25;16145987;19;130194;-65
2022/07/16 09:25:03;;;;;;;1.65;0.60;;;;;;;22.33;38.45;102355.22;16142567;19;129689;-64
2022/07/16 09:30:27;;;;;;;2.17;0.67;;;;;;;22.35;38.37;102364.19;16142951;19;129998;-65
2022/07/16 09:36:06;;;;;;;1.73;0.55;;;;;;;22.38;38.07;102358.16;16146562;19;129392;-64
2022/07/16 09:41:40;;;;;;;1.08;0.50;;;;;;;22.40;37.81;102363.50;16139561;19;129698;-64
2022/07/16 09:47:11;;;;;;;0.80;0.38;;;;;;;22.40;37.80;102369.06;16141277;19;128987;-64
2022/07/16 09:52:37;;;;;;;1.38;0.60;;;;;;;22.40;37.91;102374.63;16142815;19;129483;-64
2022/07/16 09:58:02;;;;;;;1.50;0.40;;;;;;;22.41;37.45;102370.78;16139934;19;129093;-64
2022/07/16 10:03:26;;;;;;;3.70;0.40;;;;;;;22.41;37.28;102374.38;16136462;19;130585;-65
2022/07/16 10:08:49;;;;;;;0.82;0.38;;;;;;;22.43;37.39;102372.22;16144887;19;129463;-63
2022/07/16 10:14:10;;;;;;;3.95;0.50;;;;;;;22.46;37.39;102384.00;16142785;19;130305;-64
2022/07/16 10:19:36;;;;;;;0.65;0.38;;;;;;;22.47;37.40;102382.91;16142488;19;129450;-64
2022/07/16 10:24:58;;;;;;;3.95;0.80;;;;;;;22.46;37.40;102392.34;16138285;19;129531;-64
2022/07/16 10:30:26;;;;;;;1.17;0.47;;;;;;;22.47;37.37;102389.31;16141150;19;130565;-64
2022/07/16 10:35:50;;;;;;;2.58;0.60;;;;;;;22.47;37.21;102394.91;16137402;19;129754;-63
2022/07/16 10:41:15;;;;;;;2.10;0.50;;;;;;;22.48;37.44;102398.56;16139823;19;129634;-64
2022/07/16 10:46:59;;;;;;;1.75;0.50;;;;;;;22.48;37.41;102401.34;16135269;19;130032;-63
2022/07/16 10:52:21;;;;;;;8.02;0.70;;;;;;;22.51;37.70;102400.88;16136840;19;129337;-64
2022/07/16 10:57:43;;;;;;;1.67;0.60;;;;;;;22.55;37.97;102399.28;16136776;19;130868;-63
2022/07/16 11:03:05;;;;;;;4.53;0.60;;;;;;;22.55;37.84;102402.09;16130883;19;130320;-63
2022/07/16 11:08:38;;;;;;;1.35;0.50;;;;;;;22.56;37.71;102401.00;16132411;19;129308;-63
2022/07/16 11:14:01;;;;;;;1.85;0.70;;;;;;;22.53;37.42;102402.34;16132515;19;129968;-62
2022/07/16 11:19:24;;;;;;;5.65;1.02;;;;;;;22.54;37.62;102400.38;16139174;19;129110;-63
2022/07/16 11:24:55;;;;;;;4.63;0.70;;;;;;;22.56;37.27;102403.78;16128632;19;129603;-64
2022/07/16 11:30:17;;;;;;;3.53;0.57;;;;;;;22.58;37.28;102409.97;16139485;19;129460;-63
2022/07/16 11:35:39;;;;;;;2.13;0.68;;;;;;;22.58;37.12;102407.19;16137232;19;129387;-64
2022/07/16 11:41:02;;;;;;;2.58;0.90;;;;;;;22.57;36.81;102411.06;16135231;19;131565;-64
2022/07/16 11:46:27;;;;;;;2.15;0.77;;;;;;;22.56;36.81;102414.94;16135173;19;131139;-63
2022/07/16 11:51:48;;;;;;;1.75;0.70;;;;;;;22.57;36.71;102411.06;16138092;19;129294;-64
2022/07/16 11:57:11;;;;;;;3.58;1.00;;;;;;;22.54;36.74;102411.53;16134080;19;130685;-65
2022/07/16 12:02:43;;;;;;;5.43;1.60;;;;;;;22.56;36.30;102413.03;16138310;19;129826;-65
2022/07/16 12:08:07;;;;;;;7.50;1.80;;;;;;;22.58;36.66;102407.19;16132764;19;129337;-65
2022/07/16 12:13:53;;;;;;;5.13;1.17;;;;;;;22.59;36.55;102415.31;16140628;19;130089;-65
2022/07/16 12:19:18;;;;;;;5.68;1.48;;;;;;;22.60;36.05;102410.59;16138709;19;129056;-65
2022/07/16 12:24:40;;;;;;;5.30;1.60;;;;;;;22.61;36.49;102411.44;16135193;19;129401;-65
2022/07/16 12:30:04;;;;;;;4.55;1.52;;;;;;;22.62;36.23;102414.00;16136666;19;130762;-65
2022/07/16 12:35:39;;;;;;;7.25;1.10;;;;;;;22.63;36.00;102415.72;16127950;19;129954;-62
2022/07/16 12:41:01;;;;;;;12.50;1.43;;;;;;;22.64;36.38;102411.84;16133370;19;130859;-63
2022/07/16 12:46:25;;;;;;;12.80;1.65;;;;;;;22.68;36.75;102417.78;16134491;19;129327;-63
2022/07/16 12:51:49;;;;;;;;;;;;;;;22.67;36.86;102422.50;16137256;19;129512;-63
2022/07/16 13:02:51;;;;;;;11.38;1.40;;;;;;;22.72;36.19;102419.84;16134746;19;130443;-62
2022/07/16 13:08:12;;;;;;;9.07;0.95;;;;;;;22.74;36.63;102416.81;16131033;19;129627;-63
2022/07/16 13:13:36;;;;;;;9.63;1.33;;;;;;;22.77;36.67;102423.88;16130100;19;129129;-62
2022/07/16 13:18:59;;;;;;;19.08;1.50;;;;;;;22.78;36.40;102425.56;16131625;19;129945;-62
2022/07/16 13:24:21;;;;;;;8.98;1.25;;;;;;;22.78;36.95;102428.34;16133551;19;129747;-62
2022/07/16 13:29:46;;;;;;;12.57;1.35;;;;;;;22.79;36.75;102424.47;16133618;19;129338;-62
2022/07/16 13:35:08;;;;;;;10.02;1.27;;;;;;;22.81;36.97;102425.09;16132770;19;130392;-62
2022/07/16 13:40:30;;;;;;;9.20;1.27;;;;;;;22.80;36.81;102424.25;16131684;19;129099;-62
2022/07/16 13:45:52;;;;;;;8.32;0.95;;;;;;;22.82;36.60;102424.88;16131130;19;129954;-63
2022/07/16 13:51:14;;;;;;;9.13;1.40;;;;;;;22.83;36.70;102414.53;16145452;19;129541;-62
2022/07/16 14:02:41;;;;;;;6.30;1.45;;;;;;;22.85;36.53;102417.94;16139016;19;130437;-62
2022/07/16 14:08:04;;;;;;;14.90;1.20;;;;;;;22.88;36.29;102418.31;16134477;19;131847;-63
2022/07/16 14:13:26;;;;;;;4.25;0.68;;;;;;;22.91;36.00;102417.00;16139864;19;129766;-63
2022/07/16 14:18:48;;;;;;;12.65;1.35;;;;;;;22.89;36.71;102417.22;16140814;19;129494;-62
2022/07/16 14:24:11;;;;;;;9.10;1.05;;;;;;;22.91;36.08;102422.59;16138535;19;129950;-63
2022/07/16 14:29:33;;;;;;;9.93;0.77;;;;;;;22.91;36.36;102416.16;16132422;19;129167;-62
2022/07/16 14:34:54;;;;;;;13.57;0.95;;;;;;;22.91;36.25;102432.91;16135351;19;129964;-63
2022/07/16 14:40:21;;;;;;;8.60;1.40;;;;;;;22.92;36.26;102429.88;16142394;19;128789;-62
2022/07/16 14:45:42;;;;;;;13.70;1.20;;;;;;;22.92;36.43;102429.88;16142030;19;129723;-63
2022/07/16 14:51:05;;;;;;;8.70;0.98;;;;;;;22.94;36.19;102438.03;16145222;19;128938;-63
2022/07/16 14:56:27;;;;;;;12.80;1.60;;;;;;;22.92;35.92;102435.44;16144007;19;129397;-61
2022/07/16 15:01:48;;;;;;;19.05;1.88;;;;;;;22.93;35.91;102416.78;16136885;19;129578;-62
2022/07/16 15:07:10;;;;;;;22.40;1.98;;;;;;;22.94;35.66;102422.13;16141973;19;129229;-62
2022/07/16 15:12:32;;;;;;;20.00;1.92;;;;;;;22.95;35.90;102423.81;16144234;19;133802;-62
2022/07/16 15:17:54;;;;;;;15.35;1.95;;;;;;;22.95;35.95;102431.34;16143691;19;129593;-62
2022/07/16 15:23:15;;;;;;;11.15;1.85;;;;;;;22.92;35.71;102424.28;16143015;19;129833;-62
2022/07/16 15:28:37;;;;;;;13.52;1.27;;;;;;;22.91;36.06;102436.53;16138104;19;129508;-62
2022/07/16 15:33:59;;;;;;;12.68;1.10;;;;;;;22.89;35.53;102433.97;16139822;19;130476;-63
2022/07/16 15:39:21;;;;;;;7.00;1.77;;;;;;;22.89;35.82;102436.75;16143261;19;130007;-62
2022/07/16 15:44:44;;;;;;;15.20;1.90;;;;;;;22.88;35.37;102435.06;16142399;19;130413;-63
2022/07/16 15:50:06;;;;;;;9.73;0.90;;;;;;;22.89;35.58;102435.94;16134185;19;130489;-63
2022/07/16 15:55:28;;;;;;;9.55;1.10;;;;;;;22.94;35.34;102440.81;16131830;19;131365;-63
2022/07/16 16:00:50;;;;;;;19.88;1.38;;;;;;;22.96;35.50;102436.69;16131423;19;129131;-63
2022/07/16 16:06:11;;;;;;;6.20;1.10;;;;;;;22.97;35.47;102446.75;16136601;19;129629;-63
2022/07/16 16:11:34;;;;;;;6.50;0.75;;;;;;;22.99;35.79;102452.97;16138012;19;129264;-63
2022/07/16 16:16:56;;;;;;;7.93;0.90;;;;;;;23.00;35.44;102457.47;16139863;19;129043;-63
2022/07/16 16:22:18;;;;;;;4.00;0.85;;;;;;;23.02;35.60;102458.03;16139196;19;129489;-63
2022/07/16 16:27:40;;;;;;;5.38;1.13;;;;;;;23.04;35.76;102458.66;16131806;19;130367;-63
2022/07/16 16:33:01;;;;;;;1.92;0.70;;;;;;;23.05;35.92;102453.94;16136547;19;130129;-64
2022/07/16 16:38:24;;;;;;;11.88;1.00;;;;;;;23.06;35.67;102461.22;16135085;19;129710;-62
2022/07/16 16:43:46;;;;;;;9.15;0.80;;;;;;;23.07;35.60;102459.28;16130274;19;130291;-62
2022/07/16 16:49:07;;;;;;;5.63;0.70;;;;;;;23.07;35.83;102459.28;16125247;19;130822;-62
2022/07/16 16:54:29;;;;;;;9.68;0.90;;;;;;;23.05;35.81;102462.31;16129818;19;129663;-62
2022/07/16 16:59:51;;;;;;;6.45;0.85;;;;;;;23.04;35.67;102455.88;16129058;19;131066;-62
2022/07/16 17:05:13;;;;;;;7.25;0.95;;;;;;;23.06;35.72;102447.28;16128748;19;130442;-63
2022/07/16 17:10:35;;;;;;;5.88;1.05;;;;;;;23.07;35.27;102459.28;16129336;19;129626;-62
2022/07/16 17:15:57;;;;;;;6.07;0.90;;;;;;;23.07;35.49;102453.69;16135357;19;129815;-65
2022/07/16 17:21:19;;;;;;;9.65;0.93;;;;;;;23.04;35.36;102455.88;16135868;19;129420;-65
2022/07/16 17:26:43;;;;;;;3.67;0.70;;;;;;;23.01;35.75;102459.16;16143942;19;129118;-65
2022/07/16 17:32:06;;;;;;;6.53;1.10;;;;;;;23.01;35.40;102467.53;16147757;19;129513;-65
2022/07/16 17:37:28;;;;;;;5.25;0.80;;;;;;;23.02;35.61;102469.22;16146460;19;129420;-65
2022/07/16 17:42:50;;;;;;;6.25;1.02;;;;;;;23.01;35.50;102475.91;16143985;19;129819;-66
2022/07/16 17:48:13;;;;;;;6.93;1.10;;;;;;;23.00;35.37;102471.41;16142659;19;130889;-65
2022/07/16 17:53:34;;;;;;;6.13;1.10;;;;;;;22.99;35.67;102475.28;16139909;19;130129;-64
2022/07/16 17:58:56;;;;;;;17.15;1.60;;;;;;;22.96;35.49;102475.75;16139514;19;129890;-62
2022/07/16 18:04:18;;;;;;;9.57;1.50;;;;;;;22.95;35.45;102474.06;16137349;19;129720;-61
2022/07/16 18:09:40;;;;;;;12.43;1.10;;;;;;;22.95;35.14;102489.97;16137016;19;130087;-63
2022/07/16 18:15:03;;;;;;;14.30;1.35;;;;;;;22.95;34.96;102490.81;16142592;19;129629;-62
2022/07/16 18:20:24;;;;;;;4.38;1.00;;;;;;;22.96;35.31;102495.28;16142792;19;129877;-62
2022/07/16 18:25:47;;;;;;;11.27;1.00;;;;;;;22.98;35.24;102501.50;16135644;19;131965;-62
2022/07/16 18:31:09;;;;;;;5.15;1.00;;;;;;;22.98;35.36;102493.13;16139198;19;129686;-62
2022/07/16 18:36:31;;;;;;;8.70;1.50;;;;;;;22.97;35.64;102512.88;16139425;19;129743;-63
2022/07/16 18:41:53;;;;;;;10.20;1.40;;;;;;;22.97;35.10;102510.94;16140175;19;130101;-62
2022/07/16 18:47:15;;;;;;;4.85;0.95;;;;;;;22.95;35.21;102517.88;16137670;19;129293;-63
2022/07/16 18:52:36;;;;;;;2.97;0.88;;;;;;;22.95;35.53;102517.88;16140595;19;129672;-63
2022/07/16 18:57:58;;;;;;;5.22;1.00;;;;;;;22.93;34.67;102529.25;16139038;19;129721;-63
2022/07/16 19:03:20;;;;;;;6.03;0.98;;;;;;;22.90;35.39;102529.72;16134652;19;129301;-63
2022/07/16 19:08:42;;;;;;;5.93;0.95;;;;;;;22.88;34.97;102534.69;16135334;19;129827;-62
2022/07/16 19:14:04;;;;;;;5.00;1.00;;;;;;;22.86;34.84;102522.91;16140563;19;129519;-62
2022/07/16 19:19:26;;;;;;;6.50;0.85;;;;;;;22.83;34.93;102526.16;16142261;19;129633;-62
2022/07/16 19:24:49;;;;;;;7.78;0.90;;;;;;;22.82;34.91;102536.47;16141104;19;130283;-62
2022/07/16 19:30:12;;;;;;;5.47;1.17;;;;;;;22.82;35.16;102530.03;16135074;19;129371;-62
2022/07/16 19:35:34;;;;;;;4.32;0.77;;;;;;;22.80;34.80;102540.56;16138755;19;129941;-62
2022/07/16 19:40:56;;;;;;;3.97;0.90;;;;;;;22.64;32.84;102534.56;16131908;19;129445;-62
2022/07/16 19:46:17;;;;;;;4.80;1.30;;;;;;;22.43;32.84;102542.31;16137225;19;129633;-62
2022/07/16 19:51:39;;;;;;;6.78;1.48;;;;;;;22.35;32.53;102544.56;16140184;19;129409;-62
2022/07/16 20:02:42;;;;;;;3.63;1.25;;;;;;;22.12;32.08;102549.75;16136225;19;130478;-62
2022/07/16 20:08:04;;;;;;;2.40;0.88;;;;;;;22.08;32.47;102556.84;16128608;19;129413;-62
2022/07/16 20:13:26;;;;;;;3.10;1.13;;;;;;;22.03;32.43;102562.25;16133167;19;129829;-63
2022/07/16 20:18:48;;;;;;;3.10;1.20;;;;;;;22.05;32.64;102570.41;16133594;19;129616;-62
2022/07/16 20:24:11;;;;;;;3.40;1.27;;;;;;;22.04;32.61;102577.88;16133724;19;130548;-62
2022/07/16 20:29:32;;;;;;;5.20;1.02;;;;;;;22.04;32.14;102577.88;16127657;19;130599;-67
2022/07/16 20:34:54;;;;;;;6.72;1.20;;;;;;;22.10;32.59;102585.34;16133195;19;129929;-64
2022/07/16 20:40:16;;;;;;;5.00;1.10;;;;;;;22.19;32.83;102585.03;16133972;19;129258;-64
2022/07/16 20:45:38;;;;;;;2.88;0.90;;;;;;;22.26;32.62;102588.66;16135489;19;131117;-64
2022/07/16 20:51:01;;;;;;;2.20;0.95;;;;;;;22.31;32.50;102593.53;16126690;19;129561;-64
2022/07/16 20:56:22;;;;;;;4.68;1.20;;;;;;;22.35;32.79;102595.63;16134572;19;130752;-65
2022/07/16 21:01:44;;;;;;;3.88;0.88;;;;;;;22.38;32.98;102603.53;16137150;19;130068;-65
2022/07/16 21:07:07;;;;;;;4.00;0.80;;;;;;;22.39;32.75;102601.59;16142331;19;130585;-65
2022/07/16 21:12:28;;;;;;;2.97;0.93;;;;;;;22.41;33.19;102600.25;16149047;19;129607;-64
2022/07/16 21:17:50;;;;;;;3.15;0.90;;;;;;;22.43;33.11;102600.88;16149252;19;129386;-65
2022/07/16 21:23:12;;;;;;;5.82;0.90;;;;;;;22.43;33.47;102595.31;16146882;19;129466;-64
2022/07/16 21:28:34;;;;;;;1.77;0.70;;;;;;;22.44;33.23;102596.19;16146689;19;130272;-64
2022/07/16 21:33:56;;;;;;;2.17;0.80;;;;;;;22.46;33.63;102612.66;16146184;19;130266;-65
2022/07/16 21:39:17;;;;;;;1.45;0.60;;;;;;;22.46;33.80;102607.09;16146513;19;130246;-65
2022/07/16 21:44:39;;;;;;;1.73;0.63;;;;;;;22.45;33.70;102603.47;16149144;19;129567;-65
2022/07/16 21:50:01;;;;;;;3.80;0.82;;;;;;;22.46;33.56;102607.09;16145966;19;129386;-65
2022/07/16 21:55:23;;;;;;;4.85;0.90;;;;;;;22.46;33.44;102610.75;16148437;19;129967;-65
2022/07/16 22:00:44;;;;;;;1.58;0.68;;;;;;;22.46;33.73;102610.75;16145763;19;129006;-65
2022/07/16 22:06:06;;;;;;;4.00;0.73;;;;;;;22.47;34.10;102617.16;16147685;19;129399;-64
2022/07/16 22:11:28;;;;;;;1.15;0.50;;;;;;;22.46;33.99;102623.81;16140901;19;129673;-64
2022/07/16 22:16:52;;;;;;;3.40;0.75;;;;;;;22.46;34.19;102627.47;16144735;19;129220;-65
2022/07/16 22:22:13;;;;;;;1.63;0.60;;;;;;;22.46;34.35;102626.59;16147487;19;129567;-65
2022/07/16 22:27:35;;;;;;;1.33;0.47;;;;;;;22.46;34.32;102626.59;16144728;19;130106;-64
2022/07/16 22:32:57;;;;;;;1.05;0.52;;;;;;;22.43;34.02;102623.19;16147500;19;129134;-65
2022/07/16 22:38:19;;;;;;;1.70;0.60;;;;;;;22.46;34.23;102626.59;16143237;19;128985;-65
2022/07/16 22:43:41;;;;;;;0.80;0.50;;;;;;;22.43;34.55;102623.19;16147870;19;129451;-64
2022/07/16 22:49:03;;;;;;;2.22;0.60;;;;;;;22.43;34.44;102623.19;16142996;19;129475;-65
2022/07/16 22:54:25;;;;;;;1.77;0.85;;;;;;;22.43;34.49;102628.78;16144469;19;128812;-65
2022/07/16 22:59:47;;;;;;;1.27;0.50;;;;;;;22.43;34.78;102636.31;16141620;19;130309;-65
2022/07/16 23:05:09;;;;;;;1.40;0.50;;;;;;;22.43;34.29;102631.56;16145267;19;129058;-65
2022/07/16 23:10:31;;;;;;;1.00;0.45;;;;;;;22.42;34.63;102621.50;16141068;19;131360;-64
2022/07/16 23:15:53;;;;;;;3.67;0.60;;;;;;;22.41;34.63;102621.72;16143673;19;129602;-65
2022/07/16 23:21:15;;;;;;;2.65;0.50;;;;;;;22.41;34.79;102619.78;16142105;19;129981;-65
2022/07/16 23:26:37;;;;;;;1.30;0.63;;;;;;;22.40;34.77;102612.50;16138573;19;129408;-64
2022/07/16 23:31:58;;;;;;;0.93;0.40;;;;;;;22.40;34.88;102612.50;16137523;19;129606;-65
2022/07/16 23:37:20;;;;;;;1.08;0.38;;;;;;;22.39;34.85;102608.03;16144770;19;129369;-64
2022/07/16 23:42:42;;;;;;;0.95;0.43;;;;;;;22.39;35.10;102619.19;16159547;19;129257;-65
2022/07/16 23:48:05;;;;;;;2.28;0.50;;;;;;;22.38;35.06;102614.69;16221775;19;128806;-65
2022/07/16 23:53:27;;;;;;;2.58;0.80;;;;;;;22.37;35.13;102604.63;16223025;19;128193;-64
2022/07/16 23:58:49;;;;;;;1.17;0.40;;;;;;;22.37;35.15;102610.19;16218638;19;129047;-65
